Time;durP1;ratioP1;P1;durP2;ratioP2;P2;SDS_P1;SDS_P2;PMS_P1;PMS_P2;Temp;Humidity;BMP_temperature;BMP_pressure;BME280_temperature;BME280_humidity;BME280_pressure;Samples;Min_cycle;Max_cycle;Signal;HPM_P1;HPM_P2
2022/10/07 00:02:14;;;;;;;10.32;5.88;;;;;;;7.61;100.00;101646.56;5099501;28;20186;-77
2022/10/07 00:04:45;;;;;;;10.10;5.63;;;;;;;7.55;100.00;101640.38;5092739;28;20243;-76
2022/10/07 00:07:11;;;;;;;11.73;5.43;;;;;;;7.39;100.00;101639.69;5097471;28;20194;-77
2022/10/07 00:09:38;;;;;;;9.15;5.35;;;;;;;7.50;100.00;101635.09;5096920;28;20200;-78
2022/10/07 00:12:05;;;;;;;17.02;8.68;;;;;;;7.28;100.00;101642.50;5096711;28;20204;-77
2022/10/07 00:14:32;;;;;;;11.30;6.22;;;;;;;7.37;100.00;101642.41;5093805;28;20219;-79
2022/10/07 00:16:59;;;;;;;9.07;5.20;;;;;;;7.42;100.00;101639.69;5077090;28;20255;-77
2022/10/07 00:19:26;;;;;;;10.45;5.07;;;;;;;7.39;100.00;101631.66;5077438;28;20813;-77
2022/10/07 00:21:54;;;;;;;11.15;4.88;;;;;;;7.24;100.00;101635.44;5078165;28;20207;-76
2022/10/07 00:24:20;;;;;;;8.82;4.97;;;;;;;7.21;100.00;101631.00;5077882;28;20197;-76
2022/10/07 00:26:47;;;;;;;10.38;4.30;;;;;;;7.22;100.00;101635.44;5076541;28;20205;-78
2022/10/07 00:29:13;;;;;;;5.47;4.35;;;;;;;7.22;100.00;101630.06;5086865;28;20229;-78
2022/10/07 00:31:40;;;;;;;12.05;5.57;;;;;;;7.20;100.00;101629.19;5100191;28;20199;-76
2022/10/07 00:34:07;;;;;;;10.40;5.15;;;;;;;7.05;100.00;101621.34;5108223;28;20223;-76
2022/10/07 00:36:35;;;;;;;12.63;5.75;;;;;;;6.98;100.00;101623.19;5109157;28;20196;-76
2022/10/07 00:39:06;;;;;;;17.85;5.13;;;;;;;6.97;100.00;101620.56;5099306;28;20219;-77
2022/10/07 00:41:35;;;;;;;10.00;5.00;;;;;;;7.10;100.00;101614.16;5096756;28;20638;-76
2022/10/07 00:44:34;;;;;;;10.82;6.28;;;;;;;7.11;100.00;101615.91;5094340;28;20287;-79
2022/10/07 00:47:04;;;;;;;11.77;4.90;;;;;;;7.08;100.00;101613.28;5075399;28;20201;-79
2022/10/07 00:49:36;;;;;;;10.77;5.30;;;;;;;6.88;100.00;101603.66;5074880;28;20229;-76
2022/10/07 00:52:02;;;;;;;10.40;5.28;;;;;;;6.92;100.00;101606.31;5076332;28;20182;-76
2022/10/07 00:54:30;;;;;;;11.07;5.13;;;;;;;6.98;100.00;101606.25;5075632;28;20216;-77
2022/10/07 00:56:58;;;;;;;11.40;5.40;;;;;;;7.07;100.00;101608.81;5085279;28;20567;-77
2022/10/07 00:59:26;;;;;;;12.32;6.85;;;;;;;7.03;100.00;101610.66;5097522;28;20220;-77
2022/10/07 01:01:52;;;;;;;8.68;5.45;;;;;;;7.15;100.00;101608.75;5097365;28;20724;-78
2022/10/07 01:04:19;;;;;;;14.38;7.13;;;;;;;7.10;100.00;101606.13;5084329;28;20200;-76
2022/10/07 01:06:46;;;;;;;7.68;4.85;;;;;;;7.09;100.00;101599.84;5084341;28;20224;-75
2022/10/07 01:09:13;;;;;;;10.13;5.05;;;;;;;7.14;100.00;101601.59;5087842;28;20582;-77
2022/10/07 01:11:49;;;;;;;10.10;5.00;;;;;;;7.14;100.00;101598.91;5083816;28;20613;-78
2022/10/07 01:14:29;;;;;;;10.68;5.78;;;;;;;7.18;100.00;101585.47;5076556;28;20579;-78
2022/10/07 01:17:02;;;;;;;9.18;4.97;;;;;;;7.13;100.00;101587.31;5075648;28;20793;-77
2022/10/07 01:19:56;;;;;;;8.18;4.95;;;;;;;7.08;100.00;101589.16;5075758;28;20279;-78
2022/10/07 01:22:32;;;;;;;8.95;5.22;;;;;;;6.98;100.00;101574.09;5075487;28;20207;-78
2022/10/07 01:25:17;;;;;;;8.05;5.10;;;;;;;6.98;100.00;101574.09;5076724;28;20529;-77
2022/10/07 01:27:54;;;;;;;7.45;4.85;;;;;;;6.94;100.00;101573.22;5082935;28;20228;-77
2022/10/07 01:30:20;;;;;;;11.68;5.30;;;;;;;6.89;100.00;101578.66;5082240;28;20196;-76
2022/10/07 01:32:52;;;;;;;6.55;4.97;;;;;;;6.96;100.00;101570.53;5082367;28;20200;-78
2022/10/07 01:35:24;;;;;;;8.98;4.53;;;;;;;6.98;100.00;101561.59;5075443;28;20238;-76
2022/10/07 01:37:56;;;;;;;5.93;5.07;;;;;;;6.86;100.00;101561.75;5083816;28;20216;-78
2022/10/07 01:40:26;;;;;;;12.15;4.63;;;;;;;6.77;100.00;101559.19;5096174;28;20208;-78
2022/10/07 01:42:55;;;;;;;8.63;4.57;;;;;;;6.73;100.00;101552.06;5095788;28;20246;-75
2022/10/07 01:45:27;;;;;;;8.45;4.10;;;;;;;6.78;100.00;101550.22;5095665;28;20204;-77
2022/10/07 01:47:54;;;;;;;11.32;4.70;;;;;;;6.82;100.00;101550.16;5095498;28;20595;-76
2022/10/07 01:50:24;;;;;;;9.25;4.55;;;;;;;6.77;100.00;101537.75;5095591;28;20211;-76
2022/10/07 01:53:14;;;;;;;6.93;4.60;;;;;;;6.81;100.00;101535.03;5088143;28;20287;-77
2022/10/07 01:55:55;;;;;;;9.60;4.85;;;;;;;6.89;100.00;101535.78;5096452;28;20270;-76
2022/10/07 01:58:49;;;;;;;7.68;4.47;;;;;;;7.12;100.00;101542.66;5095643;28;20231;-77
2022/10/07 02:01:22;;;;;;;6.90;4.35;;;;;;;7.14;100.00;101548.88;5095723;28;20204;-76
2022/10/07 02:04:17;;;;;;;9.52;5.57;;;;;;;7.03;100.00;101545.47;5098510;28;20185;-76
2022/10/07 02:06:51;;;;;;;11.30;4.97;;;;;;;6.97;100.00;101535.72;5099566;28;20661;-76
2022/10/07 02:09:25;;;;;;;7.82;4.55;;;;;;;6.95;100.00;101531.28;5096419;28;20251;-75
2022/10/07 02:11:57;;;;;;;10.90;5.00;;;;;;;6.87;100.00;101536.72;5095062;28;20211;-76
2022/10/07 02:14:33;;;;;;;8.77;5.28;;;;;;;6.96;100.00;101541.09;5094733;28;20219;-78
2022/10/07 02:17:06;;;;;;;13.05;4.72;;;;;;;7.01;100.00;101528.50;5094948;28;20188;-76
2022/10/07 02:19:38;;;;;;;7.40;5.03;;;;;;;7.08;100.00;101522.19;5083180;28;20311;-76
2022/10/07 02:22:08;;;;;;;9.57;5.50;;;;;;;7.09;100.00;101516.78;5073928;28;20193;-75
2022/10/07 02:24:37;;;;;;;8.70;5.60;;;;;;;7.02;100.00;101516.91;5074909;28;20182;-76
2022/10/07 02:27:09;;;;;;;8.20;4.82;;;;;;;7.00;100.00;101514.25;5073817;28;20196;-76
2022/10/07 02:29:41;;;;;;;10.32;5.00;;;;;;;7.00;100.00;101505.31;5073910;28;20297;-76
2022/10/07 02:32:13;;;;;;;6.90;4.65;;;;;;;7.08;100.00;101511.47;5074512;28;20198;-77
2022/10/07 02:34:44;;;;;;;11.88;5.65;;;;;;;6.96;100.00;101508.94;5074455;28;20230;-75
2022/10/07 02:37:18;;;;;;;7.25;5.07;;;;;;;7.00;100.00;101499.97;5075139;28;20212;-76
2022/10/07 02:39:45;;;;;;;8.32;5.20;;;;;;;7.10;100.00;101515.03;5079057;28;20211;-77
2022/10/07 02:42:22;;;;;;;8.45;5.20;;;;;;;7.01;100.00;101507.09;5093224;28;20196;-75
2022/10/07 02:44:54;;;;;;;7.18;4.15;;;;;;;7.00;100.00;101506.22;5096403;28;20584;-76
2022/10/07 02:47:28;;;;;;;9.70;4.47;;;;;;;6.97;100.00;101502.69;5079573;28;20185;-77
2022/10/07 02:49:59;;;;;;;8.63;5.10;;;;;;;6.78;100.00;101496.66;5080129;28;20580;-76
2022/10/07 02:52:30;;;;;;;8.90;4.25;;;;;;;6.68;100.00;101495.91;5078592;28;20204;-75
2022/10/07 02:54:59;;;;;;;9.10;5.13;;;;;;;6.66;100.00;101501.25;5079102;28;20219;-76
2022/10/07 02:57:30;;;;;;;7.60;4.38;;;;;;;6.71;100.00;101498.53;5078005;28;20309;-76
2022/10/07 02:59:59;;;;;;;9.43;4.90;;;;;;;6.70;100.00;101494.09;5078877;28;20356;-77
2022/10/07 03:02:32;;;;;;;7.93;5.28;;;;;;;6.45;100.00;101489.03;5078313;28;20654;-76
2022/10/07 03:04:59;;;;;;;5.90;4.72;;;;;;;6.35;100.00;101487.34;5079727;28;20187;-76
2022/10/07 03:07:26;;;;;;;8.45;4.15;;;;;;;6.46;100.00;101485.44;5090610;28;20227;-77
2022/10/07 03:09:53;;;;;;;12.48;5.00;;;;;;;6.57;100.00;101481.75;5100659;28;20742;-76
2022/10/07 03:12:20;;;;;;;6.80;4.45;;;;;;;6.60;100.00;101490.66;5102827;28;20200;-76
2022/10/07 03:14:48;;;;;;;6.55;4.05;;;;;;;6.46;100.00;101488.09;5104537;28;20230;-75
2022/10/07 03:17:16;;;;;;;6.35;3.88;;;;;;;6.50;100.00;101485.41;5107023;28;20203;-76
2022/10/07 03:19:43;;;;;;;9.18;3.92;;;;;;;6.51;100.00;101482.69;5105492;28;20210;-77
2022/10/07 03:22:09;;;;;;;6.85;4.32;;;;;;;6.57;100.00;101488.00;5103695;28;20558;-76
2022/10/07 03:24:36;;;;;;;8.20;4.93;;;;;;;6.53;100.00;101483.56;5103586;28;20199;-76
2022/10/07 03:27:04;;;;;;;11.00;4.85;;;;;;;6.62;100.00;101482.59;5102843;28;20201;-77
2022/10/07 03:29:31;;;;;;;7.75;4.30;;;;;;;6.65;100.00;101494.16;5102758;28;20267;-76
2022/10/07 03:31:58;;;;;;;6.75;4.35;;;;;;;6.78;100.00;101483.28;5090467;28;20194;-76
2022/10/07 03:34:26;;;;;;;6.30;4.30;;;;;;;6.77;100.00;101478.84;5081845;28;20221;-76
2022/10/07 03:36:53;;;;;;;7.85;4.30;;;;;;;6.81;100.00;101476.09;5082725;28;20201;-77
2022/10/07 03:39:20;;;;;;;8.40;4.20;;;;;;;6.80;100.00;101474.31;5086206;28;20219;-77
2022/10/07 03:41:48;;;;;;;6.57;4.65;;;;;;;6.85;100.00;101459.09;5088295;28;20586;-76
2022/10/07 03:44:16;;;;;;;9.13;3.88;;;;;;;6.71;100.00;101465.53;5085666;28;20201;-74
2022/10/07 03:46:42;;;;;;;5.18;3.65;;;;;;;6.78;100.00;101469.88;5087388;28;20197;-76
2022/10/07 03:49:08;;;;;;;7.50;4.60;;;;;;;6.77;100.00;101463.66;5086751;28;20223;-76
2022/10/07 03:51:36;;;;;;;9.43;4.82;;;;;;;6.50;100.00;101461.31;5094507;28;20243;-76
2022/10/07 03:54:03;;;;;;;9.23;5.47;;;;;;;6.32;100.00;101460.63;5096152;28;20193;-76
2022/10/07 03:56:29;;;;;;;13.75;4.80;;;;;;;6.45;100.00;101462.25;5096236;28;20188;-77
2022/10/07 03:58:56;;;;;;;8.82;4.40;;;;;;;6.58;100.00;101463.00;5105014;28;20214;-76
2022/10/07 04:01:23;;;;;;;8.13;4.70;;;;;;;6.50;100.00;101451.50;5106028;28;20204;-78
2022/10/07 04:03:49;;;;;;;12.48;5.30;;;;;;;6.61;100.00;101456.72;5097505;28;20300;-75
2022/10/07 04:06:16;;;;;;;6.70;5.30;;;;;;;6.79;100.00;101455.63;5100833;28;20259;-76
2022/10/07 04:08:44;;;;;;;8.38;4.75;;;;;;;6.78;100.00;101454.72;5107446;28;20276;-76
2022/10/07 04:11:12;;;;;;;10.80;5.22;;;;;;;6.72;100.00;101448.56;5117581;28;20204;-76
2022/10/07 04:13:39;;;;;;;6.75;4.22;;;;;;;6.75;100.00;101451.19;5098148;28;20193;-76
2022/10/07 04:16:07;;;;;;;180.50;97.32;;;;;;;6.77;100.00;101434.22;5087835;28;20239;-77
2022/10/07 04:18:33;;;;;;;31.65;20.25;;;;;;;6.80;100.00;101446.66;5081209;28;20208;-76
2022/10/07 04:21:00;;;;;;;12.43;8.88;;;;;;;6.76;100.00;101434.22;5091294;28;20204;-77
2022/10/07 04:23:27;;;;;;;9.40;5.63;;;;;;;6.80;100.00;101438.63;5091399;28;20204;-76
2022/10/07 04:25:55;;;;;;;8.10;4.60;;;;;;;6.64;100.00;101436.16;5106588;28;20228;-78
2022/10/07 04:28:24;;;;;;;10.95;4.93;;;;;;;6.60;100.00;101437.13;5106827;28;20299;-76
2022/10/07 04:30:52;;;;;;;9.25;4.53;;;;;;;6.59;100.00;101431.78;5105015;28;20239;-77
2022/10/07 04:33:20;;;;;;;49.40;30.25;;;;;;;6.51;100.00;101439.00;5102984;28;20180;-77
2022/10/07 04:35:49;;;;;;;22.85;14.77;;;;;;;6.42;100.00;101440.91;5102451;28;20230;-76
2022/10/07 04:38:17;;;;;;;15.07;7.05;;;;;;;6.46;100.00;101437.25;5086629;28;20728;-77
2022/10/07 04:40:47;;;;;;;9.27;5.30;;;;;;;6.39;100.00;101434.69;5082957;28;20189;-76
2022/10/07 04:43:23;;;;;;;12.98;4.03;;;;;;;6.44;100.00;101444.44;5082594;28;20227;-76
2022/10/07 04:45:52;;;;;;;7.22;4.63;;;;;;;6.39;100.00;101426.66;5081134;28;20508;-77
2022/10/07 04:48:20;;;;;;;4.93;4.00;;;;;;;6.22;100.00;101421.50;5081443;28;20227;-76
2022/10/07 04:50:47;;;;;;;10.23;4.50;;;;;;;6.11;100.00;101426.09;5080548;28;20210;-78
2022/10/07 04:53:15;;;;;;;9.05;4.20;;;;;;;6.21;100.00;101433.09;5081788;28;20208;-77
2022/10/07 04:55:46;;;;;;;15.82;5.88;;;;;;;6.25;100.00;101426.81;5080545;28;20227;-77
2022/10/07 04:58:15;;;;;;;7.30;4.00;;;;;;;6.32;100.00;101433.88;5081517;28;20223;-77
2022/10/07 05:00:43;;;;;;;8.80;4.40;;;;;;;6.35;100.00;101428.47;5087155;28;20223;-76
2022/10/07 05:03:10;;;;;;;5.65;4.10;;;;;;;6.50;100.00;101434.56;5101234;28;20607;-76
2022/10/07 05:05:37;;;;;;;10.55;5.38;;;;;;;6.55;100.00;101424.69;5102240;28;20376;-75
2022/10/07 05:08:06;;;;;;;5.32;3.80;;;;;;;6.62;100.00;101421.00;5101191;28;20688;-78
2022/10/07 05:10:35;;;;;;;6.32;4.00;;;;;;;6.70;100.00;101423.59;5100900;28;20576;-73
2022/10/07 05:13:11;;;;;;;6.55;4.45;;;;;;;6.79;100.00;101420.81;5099332;28;20626;-76
2022/10/07 05:15:46;;;;;;;20.50;12.50;;;;;;;6.99;100.00;101421.41;5100836;28;20222;-76
2022/10/07 05:18:13;;;;;;;29.10;18.08;;;;;;;7.06;100.00;101417.72;5101486;28;20223;-77
2022/10/07 05:20:42;;;;;;;11.00;7.53;;;;;;;7.08;100.00;101415.03;5101356;28;20208;-75
2022/10/07 05:23:08;;;;;;;10.27;4.55;;;;;;;7.12;100.00;101413.19;5102665;28;20544;-76
2022/10/07 05:25:35;;;;;;;26.00;16.35;;;;;;;7.14;100.00;101406.88;5108068;28;20234;-78
2022/10/07 05:28:01;;;;;;;24.83;13.77;;;;;;;6.89;100.00;101404.56;5104973;28;20255;-75
2022/10/07 05:30:28;;;;;;;35.53;22.02;;;;;;;7.00;100.00;101399.06;5103734;28;20206;-75
2022/10/07 05:32:56;;;;;;;28.63;18.33;;;;;;;7.06;100.00;101401.66;5098486;28;20205;-76
2022/10/07 05:35:22;;;;;;;11.93;6.28;;;;;;;7.11;100.00;101398.91;5099921;28;20310;-77
2022/10/07 05:37:53;;;;;;;14.35;5.57;;;;;;;7.17;100.00;101395.25;5098816;28;20220;-77
2022/10/07 05:40:19;;;;;;;8.45;4.88;;;;;;;7.39;100.00;101390.44;5100113;28;20252;-77
2022/10/07 05:42:46;;;;;;;9.93;4.47;;;;;;;7.56;100.00;101384.81;5099401;28;20207;-77
2022/10/07 05:45:12;;;;;;;11.55;5.13;;;;;;;7.70;100.00;101380.94;5100595;28;20298;-76
2022/10/07 05:47:39;;;;;;;21.02;10.27;;;;;;;7.59;100.00;101380.25;5099281;28;20228;-77
2022/10/07 05:50:08;;;;;;;11.65;5.32;;;;;;;7.64;100.00;101381.09;5103252;28;20204;-77
2022/10/07 05:52:35;;;;;;;11.43;4.80;;;;;;;7.53;100.00;101377.69;5097382;28;20214;-76
2022/10/07 05:55:02;;;;;;;6.68;4.00;;;;;;;7.61;100.00;101373.06;5096411;28;20216;-76
2022/10/07 05:57:29;;;;;;;7.38;4.75;;;;;;;7.67;100.00;101377.47;5095100;28;20249;-76
2022/10/07 05:59:57;;;;;;;11.55;5.05;;;;;;;7.64;100.00;101366.75;5095008;28;20200;-75
2022/10/07 06:02:24;;;;;;;10.70;4.60;;;;;;;7.66;100.00;101378.34;5095099;28;20261;-78
2022/10/07 06:04:51;;;;;;;7.78;5.07;;;;;;;7.63;100.00;101371.25;5093328;28;20200;-75
2022/10/07 06:07:19;;;;;;;14.68;9.07;;;;;;;7.75;100.00;101370.13;5094043;28;20200;-76
2022/10/07 06:15:14;;;;;;;6.68;4.60;;;;;;;8.05;100.00;101374.06;5094032;28;20227;-76
2022/10/07 06:17:43;;;;;;;9.80;4.80;;;;;;;7.99;100.00;101365.25;5094289;28;20219;-75
2022/10/07 06:20:12;;;;;;;8.73;4.70;;;;;;;8.09;100.00;101369.50;5094683;28;20217;-76
2022/10/07 06:22:39;;;;;;;9.07;5.10;;;;;;;8.26;100.00;101370.06;5103443;28;20709;-76
2022/10/07 06:25:07;;;;;;;9.15;5.13;;;;;;;8.28;100.00;101367.34;5104839;28;20202;-77
2022/10/07 06:27:34;;;;;;;12.07;5.00;;;;;;;8.35;100.00;101375.22;5096194;28;20220;-76
2022/10/07 06:30:01;;;;;;;10.60;4.80;;;;;;;8.30;100.00;101371.78;5107569;22;20237;-74
2022/10/07 06:32:29;;;;;;;6.57;4.70;;;;;;;8.51;100.00;101377.63;5095930;28;20197;-73
2022/10/07 06:34:55;;;;;;;8.77;5.10;;;;;;;8.57;100.00;101377.53;5095974;28;20198;-73
2022/10/07 06:37:22;;;;;;;5.63;4.45;;;;;;;8.60;100.00;101371.19;5096156;28;20221;-74
2022/10/07 06:39:50;;;;;;;9.65;5.50;;;;;;;8.77;100.00;101369.00;5096324;28;20579;-74
2022/10/07 06:42:16;;;;;;;5.88;4.68;;;;;;;8.90;100.00;101374.97;5094368;28;20196;-73
2022/10/07 06:44:43;;;;;;;8.23;4.78;;;;;;;8.98;100.00;101376.59;5095108;28;20241;-72
2022/10/07 06:47:09;;;;;;;8.15;5.10;;;;;;;9.38;100.00;101367.56;5096859;28;20603;-73
2022/10/07 06:49:37;;;;;;;7.75;4.80;;;;;;;10.06;100.00;101376.50;5096186;28;20652;-73
2022/10/07 06:52:03;;;;;;;11.07;4.90;;;;;;;10.69;100.00;101363.94;5096999;28;20211;-73
2022/10/07 06:54:30;;;;;;;11.35;5.65;;;;;;;10.94;100.00;101355.97;5096969;28;20650;-74
2022/10/07 06:56:58;;;;;;;8.95;5.32;;;;;;;10.98;100.00;101364.88;5097186;28;20220;-73
2022/10/07 06:59:24;;;;;;;11.63;5.55;;;;;;;10.57;100.00;101376.00;5096128;28;20306;-73
2022/10/07 07:01:50;;;;;;;7.60;4.85;;;;;;;10.37;100.00;101378.38;5100289;28;20214;-71
2022/10/07 07:04:17;;;;;;;13.35;6.03;;;;;;;10.66;100.00;101382.03;5102392;28;20196;-72
2022/10/07 07:06:43;;;;;;;9.85;5.93;;;;;;;10.49;100.00;101380.75;5098245;28;20206;-73
2022/10/07 07:09:10;;;;;;;11.45;6.15;;;;;;;10.38;100.00;101378.34;5096276;28;20592;-73
2022/10/07 07:11:37;;;;;;;16.48;6.68;;;;;;;10.73;100.00;101370.16;5096639;28;20227;-71
2022/10/07 07:14:06;;;;;;;9.30;5.30;;;;;;;11.51;100.00;101361.34;5096380;28;20239;-72
2022/10/07 07:16:34;;;;;;;11.02;5.75;;;;;;;11.97;100.00;101357.09;5100962;28;20701;-73
2022/10/07 07:19:02;;;;;;;9.15;5.55;;;;;;;13.14;100.00;101354.34;5115913;28;20698;-72
2022/10/07 07:21:29;;;;;;;13.25;7.57;;;;;;;14.04;100.00;101353.28;5116114;28;20268;-72
2022/10/07 07:23:57;;;;;;;14.25;7.63;;;;;;;15.04;100.00;101345.94;5102304;28;20203;-73
2022/10/07 07:26:26;;;;;;;6.80;5.15;;;;;;;16.02;100.00;101344.56;5095530;28;20206;-71
2022/10/07 07:28:56;;;;;;;9.55;5.72;;;;;;;17.08;87.96;101354.19;5094973;28;20216;-72
2022/10/07 07:31:24;;;;;;;9.23;4.78;;;;;;;18.12;80.80;101350.69;5095783;28;20207;-73
2022/10/07 07:33:52;;;;;;;14.88;5.30;;;;;;;19.05;73.58;101344.84;5095664;28;20574;-73
2022/10/07 07:36:22;;;;;;;10.73;4.93;;;;;;;19.71;68.32;101349.47;5095060;28;20219;-73
2022/10/07 07:38:52;;;;;;;8.43;4.93;;;;;;;20.22;62.68;101343.22;5095014;28;20220;-74
2022/10/07 07:41:20;;;;;;;9.60;4.80;;;;;;;20.69;60.68;101349.91;5094932;28;20787;-74
2022/10/07 07:43:49;;;;;;;7.83;4.57;;;;;;;21.18;56.25;101345.38;5095971;28;20477;-72
2022/10/07 07:46:17;;;;;;;9.63;5.40;;;;;;;21.48;56.36;101344.94;5095327;28;20442;-73
2022/10/07 07:48:46;;;;;;;13.33;5.83;;;;;;;22.07;53.54;101344.06;5094410;28;20437;-75
2022/10/07 07:51:14;;;;;;;10.33;5.37;;;;;;;22.04;50.12;101344.28;5095269;28;20480;-76
2022/10/07 07:53:41;;;;;;;8.97;5.30;;;;;;;21.79;50.58;101339.84;5076695;28;20454;-73
2022/10/07 07:56:08;;;;;;;10.13;5.20;;;;;;;22.20;50.32;101342.06;5094408;28;21018;-74
2022/10/07 07:58:34;;;;;;;8.60;4.90;;;;;;;22.47;50.36;101336.25;5094454;28;20445;-75
2022/10/07 08:01:04;;;;;;;9.77;5.47;;;;;;;23.27;47.98;101337.09;5094916;28;20778;-73
2022/10/07 08:03:31;;;;;;;15.00;5.50;;;;;;;24.13;45.48;101335.22;5109274;28;20469;-73
2022/10/07 08:06:01;;;;;;;7.47;5.10;;;;;;;23.70;46.25;101331.56;5108961;28;20440;-75
2022/10/07 08:08:29;;;;;;;8.00;4.43;;;;;;;24.50;43.97;101324.59;5094166;28;20441;-73
2022/10/07 08:10:56;;;;;;;6.03;4.53;;;;;;;25.27;41.80;101327.75;5094605;28;20867;-73
2022/10/07 08:13:22;;;;;;;5.97;4.63;;;;;;;26.00;40.11;101331.88;5094876;28;20468;-74
2022/10/07 08:15:49;;;;;;;10.63;5.17;;;;;;;26.28;39.06;101328.31;5094585;28;20764;-74
2022/10/07 08:18:16;;;;;;;9.80;5.03;;;;;;;26.35;38.67;101330.31;5094538;28;20520;-73
2022/10/07 08:20:43;;;;;;;16.97;8.03;;;;;;;26.46;38.06;101321.00;5096262;28;20982;-73
2022/10/07 08:23:11;;;;;;;11.90;6.70;;;;;;;27.04;37.67;101314.31;5095710;28;20825;-73
2022/10/07 08:25:37;;;;;;;6.80;5.33;;;;;;;27.47;36.82;101311.88;5095032;28;20454;-73
2022/10/07 08:28:04;;;;;;;7.90;4.30;;;;;;;26.22;37.88;101324.25;5094187;28;20815;-73
2022/10/07 08:30:32;;;;;;;10.83;4.33;;;;;;;26.64;37.18;101318.34;5094970;28;20470;-73
2022/10/07 08:32:59;;;;;;;6.50;3.30;;;;;;;25.99;37.82;101316.31;5098784;28;20442;-73
2022/10/07 08:35:25;;;;;;;7.00;3.30;;;;;;;26.21;37.79;101311.47;5101340;28;20818;-73
2022/10/07 08:37:52;;;;;;;7.80;3.40;;;;;;;26.82;36.78;101324.78;5099775;28;20442;-73
2022/10/07 08:40:19;;;;;;;7.63;3.53;;;;;;;26.71;36.06;101313.94;5096248;28;20469;-72
2022/10/07 08:42:47;;;;;;;10.20;3.67;;;;;;;26.64;36.89;101326.63;5094422;28;20491;-74
2022/10/07 08:45:30;;;;;;;5.80;3.20;;;;;;;26.91;36.17;101308.28;5095444;28;20437;-72
2022/10/07 08:48:00;;;;;;;9.07;4.10;;;;;;;28.23;34.63;101311.31;5094884;28;20446;-73
2022/10/07 08:50:34;;;;;;;5.77;3.40;;;;;;;28.95;33.32;101306.34;5095704;28;20458;-73
2022/10/07 08:53:03;;;;;;;11.30;3.80;;;;;;;29.89;32.47;101307.91;5094032;28;20521;-74
2022/10/07 08:55:38;;;;;;;7.23;3.40;;;;;;;30.50;31.76;101305.59;5093701;28;20494;-75
2022/10/07 08:58:39;;;;;;;7.33;3.10;;;;;;;30.12;30.58;101299.75;5093500;28;20505;-73
2022/10/07 09:01:14;;;;;;;6.90;3.00;;;;;;;30.34;30.79;101294.53;5093839;28;20425;-74
2022/10/07 09:03:48;;;;;;;6.70;3.00;;;;;;;30.40;30.89;101301.28;5093715;28;20422;-74
2022/10/07 09:06:23;;;;;;;6.53;3.80;;;;;;;29.95;31.73;101284.16;5092946;28;20837;-73
2022/10/07 09:08:56;;;;;;;4.40;2.70;;;;;;;30.09;31.55;101288.97;5093265;28;20461;-74
2022/10/07 09:11:25;;;;;;;3.87;2.63;;;;;;;30.92;30.47;101292.44;5093888;28;20438;-75
2022/10/07 09:13:57;;;;;;;4.63;2.70;;;;;;;30.78;30.09;101285.69;5094187;28;20422;-73
2022/10/07 09:16:29;;;;;;;10.00;3.30;;;;;;;30.25;30.61;101284.44;5093677;28;20473;-72
2022/10/07 09:18:59;;;;;;;8.17;3.13;;;;;;;29.18;32.22;101276.09;5093800;28;20480;-75
2022/10/07 09:21:33;;;;;;;6.60;3.30;;;;;;;30.65;30.79;101274.28;5093661;28;20444;-74
2022/10/07 09:24:14;;;;;;;5.63;2.77;;;;;;;29.87;30.84;101270.28;5093993;28;20427;-74
2022/10/07 09:26:42;;;;;;;7.30;2.90;;;;;;;30.34;30.09;101266.75;5092359;28;20483;-73
2022/10/07 09:29:09;;;;;;;9.77;3.20;;;;;;;31.01;29.89;101265.44;5093324;28;20473;-74
2022/10/07 09:31:36;;;;;;;11.33;2.73;;;;;;;31.34;29.41;101250.25;5092957;28;20438;-72
2022/10/07 09:34:03;;;;;;;6.40;3.33;;;;;;;31.67;29.19;101252.78;5093217;28;20445;-74
2022/10/07 09:36:29;;;;;;;5.77;3.10;;;;;;;31.40;29.00;101248.63;5092837;28;21169;-74
2022/10/07 09:38:57;;;;;;;4.67;2.57;;;;;;;32.56;28.32;101252.06;5092942;28;20466;-74
2022/10/07 09:41:30;;;;;;;5.13;3.17;;;;;;;32.90;27.72;101251.44;5092959;28;20445;-72
2022/10/07 09:44:03;;;;;;;6.33;3.50;;;;;;;32.24;28.66;101250.50;5092991;28;20407;-73
2022/10/07 09:46:46;;;;;;;4.80;2.70;;;;;;;33.23;27.69;101251.00;5093027;28;20426;-74
2022/10/07 09:49:40;;;;;;;7.93;3.10;;;;;;;33.80;27.18;101247.25;5092162;28;20470;-73
2022/10/07 09:52:16;;;;;;;3.67;2.30;;;;;;;34.59;26.22;101260.06;5092692;28;20505;-73
2022/10/07 09:54:44;;;;;;;7.60;2.83;;;;;;;34.91;25.91;101249.25;5092522;28;20422;-73
2022/10/07 09:57:27;;;;;;;6.03;2.90;;;;;;;33.98;26.04;101248.69;5093402;28;20438;-74
2022/10/07 10:00:17;;;;;;;8.07;2.90;;;;;;;34.40;26.27;101253.28;5093005;28;20760;-73
2022/10/07 10:02:48;;;;;;;3.80;2.40;;;;;;;35.22;25.57;101251.53;5092694;28;20521;-73
2022/10/07 10:05:24;;;;;;;4.60;3.03;;;;;;;34.06;26.03;101241.00;5092995;28;20544;-73
2022/10/07 10:07:55;;;;;;;4.67;3.00;;;;;;;33.89;26.38;101244.31;5092367;28;20485;-73
2022/10/07 10:10:25;;;;;;;4.93;2.83;;;;;;;31.54;28.50;101239.50;5091834;28;20466;-73
2022/10/07 10:12:54;;;;;;;5.83;3.10;;;;;;;32.32;28.02;101229.00;5092381;28;20470;-72
2022/10/07 10:15:28;;;;;;;7.00;3.00;;;;;;;32.52;28.43;101229.31;5092282;28;20442;-74
2022/10/07 10:17:57;;;;;;;4.70;2.60;;;;;;;32.45;28.03;101227.44;5092842;28;20433;-73
2022/10/07 10:20:34;;;;;;;5.23;3.13;;;;;;;31.31;29.07;101222.78;5096393;28;20477;-73
2022/10/07 10:23:02;;;;;;;8.27;3.20;;;;;;;32.32;28.22;101215.06;5096785;28;20426;-73
2022/10/07 10:28:39;;;;;;;5.20;3.10;;;;;;;32.45;27.54;101208.81;5101000;28;20832;-73
2022/10/07 10:31:19;;;;;;;5.00;3.80;;;;;;;32.50;28.09;101197.94;5102615;28;20501;-74
2022/10/07 10:33:55;;;;;;;8.03;6.60;;;;;;;33.41;27.48;101198.34;5099894;28;20811;-73
2022/10/07 10:36:25;;;;;;;6.10;3.17;;;;;;;33.63;26.76;101195.56;5096867;28;20441;-73
2022/10/07 10:39:00;;;;;;;5.03;2.77;;;;;;;33.21;27.45;101186.13;5097093;28;20462;-73
2022/10/07 10:41:35;;;;;;;4.20;3.40;;;;;;;32.93;27.70;101184.09;5096740;28;20421;-73
2022/10/07 10:44:31;;;;;;;4.97;4.00;;;;;;;33.99;26.73;101186.16;5096486;28;20429;-73
2022/10/07 10:47:03;;;;;;;4.43;2.83;;;;;;;35.24;25.69;101170.97;4993954;28;20486;-73
2022/10/07 10:49:36;;;;;;;4.30;2.60;;;;;;;36.33;24.58;101169.59;4994317;28;20478;-74
2022/10/07 10:52:28;;;;;;;5.80;2.70;;;;;;;36.67;24.31;101164.72;4994172;28;21070;-74
2022/10/07 10:55:14;;;;;;;4.90;2.50;;;;;;;36.03;24.70;101169.22;4993939;28;20442;-73
2022/10/07 10:57:56;;;;;;;5.70;2.90;;;;;;;36.19;24.65;101167.06;4993682;28;20577;-74
2022/10/07 11:00:23;;;;;;;6.23;2.57;;;;;;;36.02;24.97;101161.88;4994083;28;21016;-72
2022/10/07 11:03:25;;;;;;;4.80;2.77;;;;;;;36.37;24.80;101153.19;4994161;28;20438;-73
2022/10/07 11:05:55;;;;;;;7.53;3.13;;;;;;;35.56;24.92;101157.19;4954785;28;20440;-73
2022/10/07 11:08:30;;;;;;;4.93;2.67;;;;;;;36.63;24.38;101149.41;4954859;29;20583;-73
2022/10/07 11:10:59;;;;;;;6.57;2.40;;;;;;;35.50;25.09;101142.13;4955055;28;20454;-73
2022/10/07 11:13:34;;;;;;;5.83;4.90;;;;;;;36.66;24.42;101134.94;4955506;29;20467;-72
2022/10/07 11:16:06;;;;;;;5.90;2.60;;;;;;;36.08;25.04;101129.31;4956413;28;20447;-72
2022/10/07 11:18:41;;;;;;;4.00;1.97;;;;;;;35.12;25.67;101121.44;4955577;29;20444;-73
2022/10/07 11:21:12;;;;;;;2.53;1.60;;;;;;;35.21;25.49;101120.16;4955412;29;20519;-74
2022/10/07 11:23:51;;;;;;;3.10;1.73;;;;;;;35.60;25.16;101122.06;4987252;28;20913;-73
2022/10/07 11:26:23;;;;;;;4.17;1.80;;;;;;;33.74;26.48;101111.22;5037034;28;20440;-72
2022/10/07 11:28:51;;;;;;;3.97;2.00;;;;;;;32.82;27.93;101104.59;5035920;28;21055;-73
2022/10/07 11:31:31;;;;;;;3.77;2.17;;;;;;;30.46;30.24;101092.13;5035069;28;20425;-73
2022/10/07 11:34:11;;;;;;;5.67;2.50;;;;;;;32.23;28.51;101089.97;5034692;28;20429;-72
2022/10/07 11:36:47;;;;;;;5.33;2.17;;;;;;;32.86;28.06;101096.69;5032503;28;20447;-73
2022/10/07 11:39:13;;;;;;;5.43;2.30;;;;;;;34.23;26.66;101089.75;5032315;28;20455;-73
2022/10/07 11:41:50;;;;;;;4.03;2.30;;;;;;;33.19;27.42;101082.19;5023717;28;20956;-73
2022/10/07 11:44:25;;;;;;;6.13;2.33;;;;;;;33.28;27.41;101080.13;5099428;28;20851;-73
2022/10/07 11:46:53;;;;;;;6.77;3.20;;;;;;;31.44;29.00;101065.47;5095969;28;20462;-73